createdAt,value
2019-02-08T00:00:45.352Z,1.90
2019-02-08T00:03:12.737Z,2.00
2019-02-08T00:05:40.024Z,1.80
2019-02-08T00:08:07.071Z,1.90
2019-02-08T00:10:34.321Z,1.90
2019-02-08T00:13:01.349Z,1.90
2019-02-08T00:15:28.524Z,2.00
2019-02-08T00:17:55.530Z,2.00
2019-02-08T00:20:22.825Z,2.00
2019-02-08T00:22:49.896Z,2.00
2019-02-08T00:25:17.259Z,2.10
2019-02-08T00:27:44.383Z,2.20
2019-02-08T00:30:15.464Z,2.10
2019-02-08T00:32:42.464Z,2.10
2019-02-08T00:35:09.909Z,2.10
2019-02-08T00:37:36.996Z,1.90
2019-02-08T00:40:06.234Z,1.80
2019-02-08T00:42:33.239Z,1.80
2019-02-08T00:45:00.253Z,1.90
2019-02-08T00:47:27.168Z,1.90
2019-02-08T00:49:55.412Z,1.80
2019-02-08T00:52:22.541Z,1.90
2019-02-08T00:54:49.512Z,2.00
2019-02-08T00:57:16.760Z,2.00
2019-02-08T00:59:43.942Z,2.10
2019-02-08T01:02:10.961Z,2.20
2019-02-08T01:04:38.069Z,2.30
2019-02-08T01:07:05.249Z,2.30
2019-02-08T01:09:32.777Z,2.40
2019-02-08T01:11:59.931Z,2.40
2019-02-08T01:14:26.978Z,2.30
2019-02-08T01:16:55.085Z,2.40
2019-02-08T01:19:21.985Z,2.40
2019-02-08T01:21:48.951Z,2.40
2019-02-08T01:24:15.992Z,2.40
2019-02-08T01:26:43.021Z,2.60
2019-02-08T01:29:10.068Z,2.50
2019-02-08T01:31:37.097Z,2.50
2019-02-08T01:34:04.655Z,2.60
2019-02-08T01:36:33.367Z,2.70
2019-02-08T01:39:00.386Z,2.60
2019-02-08T01:41:28.472Z,2.60
2019-02-08T01:43:55.461Z,2.60
2019-02-08T01:46:22.465Z,2.70
2019-02-08T01:48:49.464Z,2.60
2019-02-08T01:51:16.429Z,2.60
2019-02-08T01:53:48.517Z,2.70
2019-02-08T01:56:12.270Z,2.70
2019-02-08T01:58:39.328Z,2.70
2019-02-08T02:01:08.159Z,2.70
2019-02-08T02:03:35.105Z,2.80
2019-02-08T02:06:02.165Z,2.80
2019-02-08T02:08:29.219Z,2.80
2019-02-08T02:10:56.130Z,2.90
2019-02-08T02:13:23.285Z,2.90
2019-02-08T02:15:50.282Z,2.80
2019-02-08T02:18:17.374Z,2.80
2019-02-08T02:20:46.233Z,2.70
2019-02-08T02:23:14.777Z,2.70
2019-02-08T02:25:41.748Z,2.70
2019-02-08T02:28:08.990Z,2.70
2019-02-08T02:30:36.396Z,2.80
2019-02-08T02:33:05.468Z,2.90
2019-02-08T02:35:32.400Z,2.90
2019-02-08T02:38:01.257Z,2.90
2019-02-08T02:40:30.113Z,3.00
2019-02-08T02:42:57.089Z,2.90
2019-02-08T02:45:26.717Z,2.90
2019-02-08T02:47:53.837Z,3.00
2019-02-08T02:50:20.978Z,3.00
2019-02-08T02:52:48.062Z,3.00
2019-02-08T02:55:15.204Z,2.80
2019-02-08T02:57:42.437Z,2.80
2019-02-08T03:00:15.744Z,2.80
2019-02-08T03:02:42.788Z,2.80
2019-02-08T03:05:09.936Z,3.00
2019-02-08T03:07:36.951Z,2.90
2019-02-08T03:10:05.164Z,2.90
2019-02-08T03:12:32.093Z,2.80
2019-02-08T03:14:59.126Z,2.90
2019-02-08T03:17:26.116Z,3.00
2019-02-08T03:19:53.053Z,2.90
2019-02-08T03:22:19.944Z,2.90
2019-02-08T03:24:47.746Z,3.00
2019-02-08T03:27:14.647Z,3.00
2019-02-08T03:29:41.656Z,3.10
2019-02-08T03:32:08.564Z,3.10
2019-02-08T03:34:35.466Z,3.10
2019-02-08T03:37:02.475Z,3.10
2019-02-08T03:39:29.397Z,3.10
2019-02-08T03:41:56.380Z,3.20
2019-02-08T03:44:23.364Z,3.20
2019-02-08T03:46:50.483Z,3.20
2019-02-08T03:49:17.403Z,3.20
2019-02-08T03:51:44.434Z,3.20
2019-02-08T03:54:11.395Z,3.20
2019-02-08T03:56:38.452Z,3.10
2019-02-08T03:59:05.365Z,3.10
2019-02-08T04:01:32.289Z,3.10
2019-02-08T04:04:13.972Z,3.00
2019-02-08T04:06:41.432Z,3.10
2019-02-08T04:09:09.020Z,3.20
2019-02-08T04:11:36.455Z,3.20
2019-02-08T04:14:04.009Z,3.10
2019-02-08T04:16:30.954Z,3.20
2019-02-08T04:18:57.929Z,3.10
2019-02-08T04:21:24.866Z,3.20
2019-02-08T04:23:51.895Z,3.10
2019-02-08T04:26:19.909Z,3.10
2019-02-08T04:28:46.988Z,3.20
2019-02-08T04:31:13.961Z,3.10
2019-02-08T04:33:41.000Z,3.20
2019-02-08T04:36:07.953Z,3.30
2019-02-08T04:38:34.913Z,3.40
2019-02-08T04:41:01.872Z,3.30
2019-02-08T04:43:30.716Z,3.20
2019-02-08T04:45:57.705Z,3.10
2019-02-08T04:48:24.682Z,3.10
2019-02-08T04:50:51.564Z,3.10
2019-02-08T04:53:18.495Z,3.10
2019-02-08T04:55:46.536Z,3.20
2019-02-08T04:58:13.476Z,3.10
2019-02-08T05:00:40.381Z,3.10
2019-02-08T05:03:07.346Z,3.10
2019-02-08T05:05:34.324Z,3.20
2019-02-08T05:08:01.462Z,3.20
2019-02-08T05:10:29.885Z,3.20
2019-02-08T05:12:56.938Z,3.20
2019-02-08T05:15:23.920Z,3.10
2019-02-08T05:17:51.025Z,3.10
2019-02-08T05:20:19.821Z,3.10
2019-02-08T05:22:48.961Z,3.20
2019-02-08T05:25:17.898Z,3.30
2019-02-08T05:27:44.836Z,3.40
2019-02-08T05:30:23.658Z,3.50
2019-02-08T05:32:50.537Z,3.60
2019-02-08T05:35:17.512Z,3.60
2019-02-08T05:37:44.409Z,3.60
2019-02-08T05:40:11.678Z,3.60
2019-02-08T05:42:38.676Z,3.70
2019-02-08T05:45:07.569Z,3.70
2019-02-08T05:47:34.515Z,3.80
2019-02-08T05:50:01.483Z,3.80
2019-02-08T05:52:28.519Z,3.80
2019-02-08T05:54:55.441Z,3.70
2019-02-08T05:57:22.469Z,3.80
2019-02-08T05:59:49.376Z,3.70
2019-02-08T06:02:16.259Z,3.80
2019-02-08T06:04:43.599Z,3.80
2019-02-08T06:07:10.768Z,3.80
2019-02-08T06:09:37.765Z,3.90
2019-02-08T06:12:05.087Z,3.90
2019-02-08T06:14:32.012Z,3.90
2019-02-08T06:16:59.002Z,3.80
2019-02-08T06:19:25.960Z,3.70
2019-02-08T06:21:53.004Z,3.60
2019-02-08T06:24:20.032Z,3.60
2019-02-08T06:26:47.034Z,3.50
2019-02-08T06:29:14.318Z,3.60
2019-02-08T06:31:41.420Z,3.60
2019-02-08T06:34:09.197Z,3.60
2019-02-08T06:36:36.212Z,3.60
2019-02-08T06:39:07.093Z,3.50
2019-02-08T06:41:34.046Z,3.60
2019-02-08T06:44:01.005Z,3.60
2019-02-08T06:46:27.934Z,3.70
2019-02-08T06:48:54.930Z,3.80
2019-02-08T06:51:21.876Z,3.90
2019-02-08T06:53:48.841Z,3.90
2019-02-08T06:56:34.431Z,3.90
2019-02-08T06:59:03.230Z,4.00
2019-02-08T07:01:32.024Z,3.90
2019-02-08T07:04:16.216Z,4.00
2019-02-08T07:06:58.098Z,4.00
2019-02-08T07:09:26.940Z,3.80
2019-02-08T07:11:55.762Z,3.80
2019-02-08T07:14:24.631Z,3.80
2019-02-08T07:17:13.893Z,3.90
2019-02-08T07:19:48.508Z,4.00
2019-02-08T07:22:27.653Z,4.00
2019-02-08T07:25:18.685Z,4.00
2019-02-08T07:27:48.306Z,4.10
2019-02-08T07:30:35.592Z,4.10
2019-02-08T07:33:07.749Z,4.20
2019-02-08T07:35:36.956Z,4.20
2019-02-08T07:38:06.129Z,4.20
2019-02-08T07:40:49.957Z,4.10
2019-02-08T07:43:27.834Z,4.10
2019-02-08T07:46:07.897Z,4.10
2019-02-08T07:48:45.900Z,4.30
2019-02-08T07:51:31.545Z,4.20
2019-02-08T07:54:17.355Z,4.30
2019-02-08T07:56:46.248Z,4.30
2019-02-08T07:59:25.154Z,4.50
2019-02-08T08:02:12.233Z,4.50
2019-02-08T08:04:44.302Z,4.60
2019-02-08T08:07:13.804Z,4.60
2019-02-08T08:09:43.827Z,4.60
2019-02-08T08:12:24.845Z,4.70
2019-02-08T08:15:00.040Z,4.80
2019-02-08T08:17:28.985Z,4.70
2019-02-08T08:20:03.819Z,4.70
2019-02-08T08:22:51.116Z,4.70
2019-02-08T08:25:33.871Z,4.70
2019-02-08T08:27:59.945Z,4.70
2019-02-08T08:30:41.778Z,4.80
2019-02-08T08:33:18.037Z,4.90
2019-02-08T08:36:09.834Z,5.00
2019-02-08T08:39:14.618Z,4.90
2019-02-08T08:42:17.449Z,4.90
2019-02-08T08:45:18.595Z,4.80
2019-02-08T08:48:22.021Z,4.80
2019-02-08T08:51:42.960Z,4.80
2019-02-08T08:54:46.786Z,4.90
2019-02-08T08:57:58.648Z,5.10
2019-02-08T09:01:07.686Z,5.30
2019-02-08T09:04:12.195Z,5.40
2019-02-08T09:07:16.098Z,5.60
2019-02-08T09:10:20.437Z,5.70
2019-02-08T09:13:35.470Z,5.70
2019-02-08T09:16:41.386Z,5.70
2019-02-08T09:19:42.691Z,5.70
2019-02-08T09:22:51.323Z,5.80
2019-02-08T09:25:59.686Z,5.80
2019-02-08T09:29:11.978Z,5.80
2019-02-08T09:32:23.415Z,5.80
2019-02-08T09:35:38.430Z,5.90
2019-02-08T09:38:45.971Z,6.00
2019-02-08T09:41:42.820Z,6.10
2019-02-08T09:44:53.919Z,6.20
2019-02-08T09:47:57.357Z,6.30
2019-02-08T09:51:12.067Z,6.30
2019-02-08T09:54:48.126Z,6.30
2019-02-08T09:57:41.638Z,6.50
2019-02-08T10:00:44.903Z,6.50
2019-02-08T10:03:56.845Z,6.60
2019-02-08T10:07:16.670Z,6.60
2019-02-08T10:10:24.052Z,6.60
2019-02-08T10:13:37.869Z,6.60
2019-02-08T10:16:59.585Z,6.70
2019-02-08T10:20:01.146Z,6.70
2019-02-08T10:23:21.522Z,6.80
2019-02-08T10:26:44.656Z,6.80
2019-02-08T10:29:47.828Z,6.80
2019-02-08T10:33:04.758Z,6.80
2019-02-08T10:36:11.247Z,6.90
2019-02-08T10:39:16.207Z,6.90
2019-02-08T10:42:20.168Z,6.90
2019-02-08T10:45:37.933Z,7.00
2019-02-08T10:48:42.989Z,7.10
2019-02-08T10:52:24.694Z,7.20
2019-02-08T10:55:23.216Z,7.20
2019-02-08T10:58:37.554Z,7.30
2019-02-08T11:01:42.163Z,7.30
2019-02-08T11:04:54.376Z,7.30
2019-02-08T11:08:02.236Z,7.30
2019-02-08T11:11:15.216Z,7.30
2019-02-08T11:14:22.588Z,7.20
2019-02-08T11:17:22.086Z,7.30
2019-02-08T11:19:54.002Z,7.30
2019-02-08T11:22:21.070Z,7.30
2019-02-08T11:24:47.962Z,7.40
2019-02-08T11:27:14.926Z,7.40
2019-02-08T11:29:41.951Z,7.50
2019-02-08T11:32:09.008Z,7.50
2019-02-08T11:34:36.031Z,7.50
2019-02-08T11:37:03.460Z,7.60
2019-02-08T11:39:30.383Z,7.60
2019-02-08T11:41:57.473Z,7.60
2019-02-08T11:44:24.481Z,7.60
2019-02-08T11:46:51.515Z,7.60
2019-02-08T11:49:18.581Z,7.60
2019-02-08T11:51:45.571Z,7.60
2019-02-08T11:54:12.779Z,7.60
2019-02-08T11:56:39.859Z,7.60
2019-02-08T11:59:06.828Z,7.60
2019-02-08T12:01:35.761Z,7.70
2019-02-08T12:04:03.587Z,7.70
2019-02-08T12:06:30.638Z,7.70
2019-02-08T12:08:57.666Z,7.70
2019-02-08T12:11:24.714Z,7.70
2019-02-08T12:13:51.641Z,7.80
2019-02-08T12:16:19.867Z,7.80
2019-02-08T12:18:46.852Z,7.70
2019-02-08T12:21:14.479Z,7.70
2019-02-08T12:23:41.602Z,7.70
2019-02-08T12:26:08.656Z,7.80
2019-02-08T12:28:35.964Z,7.70
2019-02-08T12:31:03.626Z,7.70
2019-02-08T12:33:30.669Z,7.80
2019-02-08T12:35:58.756Z,7.80
2019-02-08T12:38:26.147Z,7.80
2019-02-08T12:40:53.256Z,7.70
2019-02-08T12:43:23.101Z,7.80
2019-02-08T12:45:50.174Z,7.70
2019-02-08T12:48:17.329Z,7.80
2019-02-08T12:50:44.584Z,7.80
2019-02-08T12:53:11.818Z,7.80
2019-02-08T12:55:38.904Z,7.80
2019-02-08T12:58:05.956Z,7.90
2019-02-08T13:00:33.074Z,7.90
2019-02-08T13:03:00.104Z,8.00
2019-02-08T13:05:27.388Z,8.10
2019-02-08T13:07:54.477Z,8.30
2019-02-08T13:10:22.066Z,8.40
2019-02-08T13:12:49.324Z,8.50
2019-02-08T13:15:16.811Z,8.50
2019-02-08T13:17:44.880Z,8.50
2019-02-08T13:20:14.391Z,8.50
2019-02-08T13:22:41.421Z,8.50
2019-02-08T13:25:08.790Z,8.50
2019-02-08T13:27:35.720Z,8.50
2019-02-08T13:30:05.976Z,8.50
2019-02-08T13:32:33.033Z,8.70
2019-02-08T13:34:59.922Z,8.60
2019-02-08T13:37:26.892Z,8.60
2019-02-08T13:39:53.846Z,8.60
2019-02-08T13:42:20.799Z,8.60
2019-02-08T13:44:47.731Z,8.60
2019-02-08T13:47:14.708Z,8.60
2019-02-08T13:49:41.687Z,8.50
2019-02-08T13:52:08.748Z,8.50
2019-02-08T13:54:35.721Z,8.50
2019-02-08T13:57:03.354Z,8.40
2019-02-08T13:59:30.548Z,8.40
2019-02-08T14:01:57.566Z,8.40
2019-02-08T14:04:24.517Z,8.30
2019-02-08T14:06:51.528Z,8.30
2019-02-08T14:09:18.877Z,8.30
2019-02-08T14:11:45.878Z,8.40
2019-02-08T14:14:12.897Z,8.40
2019-02-08T14:16:39.982Z,8.40
2019-02-08T14:19:06.977Z,8.40
2019-02-08T14:21:33.870Z,8.50
2019-02-08T14:24:00.869Z,8.50
2019-02-08T14:26:27.824Z,8.50
2019-02-08T14:28:54.767Z,8.50
2019-02-08T14:31:21.704Z,8.50
2019-02-08T14:33:48.751Z,8.50
2019-02-08T14:36:15.737Z,8.50
2019-02-08T14:38:42.673Z,8.50
2019-02-08T14:41:09.645Z,8.50
2019-02-08T14:43:36.651Z,8.50
2019-02-08T14:46:03.757Z,8.50
2019-02-08T14:48:30.825Z,8.50
2019-02-08T14:50:57.765Z,8.50
2019-02-08T14:53:24.666Z,8.50
2019-02-08T14:55:51.621Z,8.50
2019-02-08T14:58:18.529Z,8.50
2019-02-08T15:00:45.541Z,8.50
2019-02-08T15:03:12.515Z,8.50
2019-02-08T15:05:39.545Z,8.50
2019-02-08T15:08:06.557Z,8.50
2019-02-08T15:10:36.294Z,8.50
2019-02-08T15:13:03.389Z,8.50
2019-02-08T15:15:30.419Z,8.50
2019-02-08T15:17:57.345Z,8.50
2019-02-08T15:20:28.508Z,8.50
2019-02-08T15:22:55.552Z,8.50
2019-02-08T15:25:22.599Z,8.50
2019-02-08T15:27:49.496Z,8.50
2019-02-08T15:30:21.660Z,8.50
2019-02-08T15:32:48.668Z,8.50
2019-02-08T15:35:17.212Z,8.50
2019-02-08T15:37:45.697Z,8.40
2019-02-08T15:40:16.784Z,8.40
2019-02-08T15:42:45.091Z,8.50
2019-02-08T15:45:14.639Z,8.50
2019-02-08T15:47:41.667Z,8.40
2019-02-08T15:50:10.486Z,8.50
2019-02-08T15:52:37.495Z,8.40
2019-02-08T15:55:06.521Z,8.40
2019-02-08T15:57:33.445Z,8.40
2019-02-08T16:00:00.614Z,8.40
2019-02-08T16:02:27.548Z,8.40
2019-02-08T16:04:54.524Z,8.40
2019-02-08T16:07:21.908Z,8.40
2019-02-08T16:09:49.165Z,8.40
2019-02-08T16:12:16.552Z,8.50
2019-02-08T16:14:44.224Z,8.50
2019-02-08T16:17:11.564Z,8.50
2019-02-08T16:19:38.654Z,8.50
2019-02-08T16:22:05.953Z,8.50
2019-02-08T16:24:32.922Z,8.50
2019-02-08T16:26:59.816Z,8.60
2019-02-08T16:29:26.829Z,8.60
2019-02-08T16:31:53.751Z,8.60
2019-02-08T16:34:20.794Z,8.60
2019-02-08T16:36:47.861Z,8.60
2019-02-08T16:39:14.881Z,8.60
2019-02-08T16:41:41.835Z,8.60
2019-02-08T16:44:09.283Z,8.60
2019-02-08T16:46:36.289Z,8.60
2019-02-08T16:49:03.606Z,8.60
2019-02-08T16:51:30.654Z,8.60
2019-02-08T16:53:57.676Z,8.60
2019-02-08T16:56:24.756Z,8.60
2019-02-08T16:58:51.650Z,8.60
2019-02-08T17:01:18.916Z,8.60
2019-02-08T17:03:45.960Z,8.60
2019-02-08T17:06:13.013Z,8.60
2019-02-08T17:08:39.930Z,8.60
2019-02-08T17:11:06.965Z,8.70
2019-02-08T17:13:33.984Z,8.60
2019-02-08T17:16:01.271Z,8.60
2019-02-08T17:18:28.314Z,8.60
2019-02-08T17:20:55.389Z,8.60
2019-02-08T17:23:22.368Z,8.60
2019-02-08T17:25:49.396Z,8.60
2019-02-08T17:28:16.537Z,8.60
2019-02-08T17:30:43.919Z,8.60
2019-02-08T17:33:10.958Z,8.60
2019-02-08T17:35:38.175Z,8.70
2019-02-08T17:38:05.094Z,8.60
2019-02-08T17:40:32.671Z,8.60
2019-02-08T17:42:59.697Z,8.60
2019-02-08T17:45:26.751Z,8.60
2019-02-08T17:47:55.798Z,8.60
2019-02-08T17:50:23.941Z,8.60
2019-02-08T17:52:50.984Z,8.70
2019-02-08T17:55:19.243Z,8.60
2019-02-08T17:57:46.287Z,8.70
2019-02-08T18:00:23.476Z,8.60
2019-02-08T18:02:50.389Z,8.60
2019-02-08T18:05:17.449Z,8.60
2019-02-08T18:07:44.491Z,8.60
2019-02-08T18:10:14.456Z,8.60
2019-02-08T18:12:44.500Z,8.60
2019-02-08T18:15:18.935Z,8.70
2019-02-08T18:17:51.041Z,8.60
2019-02-08T18:20:32.769Z,8.70
2019-02-08T18:22:59.934Z,8.70
2019-02-08T18:25:26.869Z,8.60
2019-02-08T18:27:53.822Z,8.60
2019-02-08T18:30:21.123Z,8.70
2019-02-08T18:32:48.139Z,8.70
2019-02-08T18:35:15.203Z,8.60
2019-02-08T18:37:42.458Z,8.60
2019-02-08T18:40:11.871Z,8.60
2019-02-08T18:42:38.870Z,8.60
2019-02-08T18:45:08.016Z,8.60
2019-02-08T18:47:35.058Z,8.60
2019-02-08T18:50:02.648Z,8.60
2019-02-08T18:52:29.572Z,8.60
2019-02-08T18:54:56.533Z,8.60
2019-02-08T18:57:23.595Z,8.60
2019-02-08T18:59:50.780Z,8.60
2019-02-08T19:02:17.874Z,8.60
2019-02-08T19:04:44.937Z,8.50
2019-02-08T19:07:12.201Z,8.50
2019-02-08T19:09:39.250Z,8.50
2019-02-08T19:12:06.324Z,8.50
2019-02-08T19:14:33.376Z,8.50
2019-02-08T19:17:00.316Z,8.50
2019-02-08T19:19:27.330Z,8.50
2019-02-08T19:21:54.367Z,8.50
2019-02-08T19:24:21.362Z,8.50
2019-02-08T19:26:48.500Z,8.50
2019-02-08T19:29:15.524Z,8.50
2019-02-08T19:31:42.618Z,8.50
2019-02-08T19:34:09.565Z,8.50
2019-02-08T19:36:36.501Z,8.50
2019-02-08T19:39:06.596Z,8.50
2019-02-08T19:41:33.531Z,8.50
2019-02-08T19:44:00.542Z,8.50
2019-02-08T19:46:27.645Z,8.50
2019-02-08T19:48:54.619Z,8.40
2019-02-08T19:51:21.596Z,8.50
2019-02-08T19:53:48.603Z,8.50
2019-02-08T19:56:15.771Z,8.50
2019-02-08T19:58:42.705Z,8.50
2019-02-08T20:01:09.802Z,8.50
2019-02-08T20:03:36.820Z,8.50
2019-02-08T20:06:04.073Z,8.50
2019-02-08T20:08:31.008Z,8.40
2019-02-08T20:10:58.009Z,8.40
2019-02-08T20:13:24.989Z,8.40
2019-02-08T20:15:52.105Z,8.40
2019-02-08T20:18:19.413Z,8.40
2019-02-08T20:20:46.380Z,8.40
2019-02-08T20:23:13.456Z,8.40
2019-02-08T20:25:40.592Z,8.40
2019-02-08T20:28:07.639Z,8.40
2019-02-08T20:30:34.976Z,8.40
2019-02-08T20:33:03.569Z,8.40
2019-02-08T20:35:31.031Z,8.40
2019-02-08T20:37:58.623Z,8.30
2019-02-08T20:40:33.603Z,8.40
2019-02-08T20:43:00.643Z,8.40
2019-02-08T20:45:29.474Z,8.40
2019-02-08T20:47:58.125Z,8.40
2019-02-08T20:50:25.572Z,8.30
2019-02-08T20:52:53.793Z,8.30
2019-02-08T20:55:26.204Z,8.30
2019-02-08T20:57:58.603Z,8.30
2019-02-08T21:00:31.626Z,8.30
2019-02-08T21:02:59.655Z,8.30
2019-02-08T21:05:28.266Z,8.40
2019-02-08T21:07:55.694Z,8.30
2019-02-08T21:10:22.725Z,8.30
2019-02-08T21:12:49.888Z,8.20
2019-02-08T21:15:17.337Z,8.20
2019-02-08T21:17:44.324Z,8.20
2019-02-08T21:20:11.441Z,8.20
2019-02-08T21:22:38.589Z,8.20
2019-02-08T21:25:07.421Z,8.20
2019-02-08T21:27:34.434Z,8.20
2019-02-08T21:30:01.420Z,8.20
2019-02-08T21:32:28.445Z,8.10
2019-02-08T21:34:55.536Z,8.20
2019-02-08T21:37:22.591Z,8.10
2019-02-08T21:39:49.612Z,8.10
2019-02-08T21:42:16.786Z,8.10
2019-02-08T21:44:43.853Z,8.00
2019-02-08T21:47:10.834Z,8.00
2019-02-08T21:49:37.881Z,8.00
2019-02-08T21:52:05.185Z,8.00
2019-02-08T21:54:32.187Z,8.10
2019-02-08T21:56:59.380Z,8.10
2019-02-08T21:59:26.411Z,8.10
2019-02-08T22:01:53.401Z,8.10
2019-02-08T22:04:20.345Z,8.10
2019-02-08T22:06:47.251Z,8.10
2019-02-08T22:09:15.229Z,8.20
2019-02-08T22:11:42.274Z,8.10
2019-02-08T22:14:12.212Z,8.10
2019-02-08T22:16:39.209Z,8.10
2019-02-08T22:19:06.193Z,8.00
2019-02-08T22:21:33.258Z,8.10
2019-02-08T22:24:01.039Z,8.00
2019-02-08T22:26:28.081Z,8.00
2019-02-08T22:28:56.605Z,8.10
2019-02-08T22:31:23.613Z,8.00
2019-02-08T22:33:50.658Z,8.00
2019-02-08T22:36:17.810Z,8.10
2019-02-08T22:38:44.857Z,8.10
2019-02-08T22:41:11.843Z,8.00
2019-02-08T22:43:38.897Z,8.00
2019-02-08T22:46:06.063Z,8.00
2019-02-08T22:48:33.276Z,8.00
2019-02-08T22:51:00.300Z,8.00
2019-02-08T22:53:27.378Z,8.10
2019-02-08T22:55:54.453Z,8.00
2019-02-08T22:58:21.752Z,8.00
2019-02-08T23:01:14.317Z,8.10
2019-02-08T23:03:43.175Z,8.10
2019-02-08T23:06:11.214Z,8.10
2019-02-08T23:08:39.386Z,8.10
2019-02-08T23:11:06.771Z,8.00
2019-02-08T23:13:34.563Z,8.00
2019-02-08T23:16:01.723Z,8.00
2019-02-08T23:18:30.273Z,8.00
2019-02-08T23:20:57.284Z,8.00
2019-02-08T23:23:25.732Z,8.00
2019-02-08T23:25:52.846Z,8.00
2019-02-08T23:28:19.770Z,8.00
2019-02-08T23:30:46.928Z,8.00
2019-02-08T23:33:13.882Z,8.10
2019-02-08T23:35:43.214Z,8.10
2019-02-08T23:38:10.513Z,8.00
2019-02-08T23:40:38.035Z,8.00
2019-02-08T23:43:05.035Z,8.00
2019-02-08T23:45:31.998Z,8.00
2019-02-08T23:47:58.998Z,8.00
2019-02-08T23:50:26.029Z,8.00
2019-02-08T23:52:53.365Z,8.00
2019-02-08T23:55:20.708Z,8.00
2019-02-08T23:57:47.751Z,8.00
